MGGT

La Aurora International Airport

Airport
ICAO code
MGGT
IATA Code
GUA
Summary
ICAO Region
CARSAM
ICAO Territory
Location

Aurora, Guatemala Department

Serving
Guatemala City
Elevation
4951 ft
Coordinates
14° 34' 60" N , 90° 31' 39" W
KCC
Aw
Metar
Observation
MGGT 120000Z 05006KT 9999 FEW022TCU FEW026CB BKN200 21/17 Q1021 A3015 CB ENE/E TCU W/WNW/NW
Station
Guatemala Aeropuertola Aurora
Date/Time
2022-08-12 00:00:00
Wind direction
50°
Wind speed
06 kts
Lowest cloud amount
few clouds
Temperature
21°C
Dew point
17°C
Humidity
77%
QNH
1021 hPa
Weather condition
n/a

La Aurora International Airport serves Guatemala City, Guatemala.

Climatology

Tropical savannah climate (Köppen climate classification Aw)

Runways

Designator Length Width Surface Rops
1/19 2987 60 ASP Yes/Yes

Airport map

Aerial View

SKYbrary Partners:

Safety knowledge contributed by: